Time;durP1;ratioP1;P1;durP2;ratioP2;P2;SDS_P1;SDS_P2;PMS_P1;PMS_P2;Temp;Humidity;BMP_temperature;BMP_pressure;BME280_temperature;BME280_humidity;BME280_pressure;Samples;Min_cycle;Max_cycle;Signal;HPM_P1;HPM_P2
2021/11/07 00:00:07;;;;;;;11.70;10.23;;;;;;;3.28;84.50;95446.70;1710825;83;21796;-60
2021/11/07 00:05:04;;;;;;;10.82;9.03;;;;;;;3.29;84.10;95442.82;1718248;83;27031;-61
2021/11/07 00:07:46;;;;;;;9.80;8.73;;;;;;;3.20;84.08;95445.90;1713557;83;21040;-62
2021/11/07 00:10:22;;;;;;;10.82;9.05;;;;;;;3.12;84.24;95455.77;1714582;83;21512;-61
2021/11/07 00:12:46;;;;;;;12.50;8.95;;;;;;;3.09;84.38;95455.17;1719125;82;21830;-61
2021/11/07 00:15:14;;;;;;;10.75;9.00;;;;;;;3.06;84.32;95460.78;1715668;83;20965;-61
2021/11/07 00:17:48;;;;;;;13.95;10.50;;;;;;;3.07;84.31;95465.66;1692097;83;21181;-62
2021/11/07 00:20:17;;;;;;;11.68;9.65;;;;;;;3.08;84.42;95467.20;1716982;83;21473;-62
2021/11/07 00:25:27;;;;;;;14.65;10.25;;;;;;;3.15;84.71;95460.43;1693087;83;21239;-59
2021/11/07 00:27:57;;;;;;;19.70;12.82;;;;;;;3.22;84.85;95451.73;1718619;82;20977;-61
2021/11/07 00:33:19;;;;;;;16.10;12.00;;;;;;;3.32;84.46;95444.20;1685635;83;21035;-61
2021/11/07 00:38:20;;;;;;;42.38;31.07;;;;;;;3.49;84.06;95454.36;1703696;83;21798;-62
2021/11/07 00:43:20;;;;;;;17.23;13.05;;;;;;;3.51;83.47;95447.34;1712589;83;20989;-61
2021/11/07 00:48:46;;;;;;;13.95;11.30;;;;;;;3.43;83.36;95438.80;1707723;83;21021;-62
2021/11/07 01:01:25;;;;;;;14.00;11.48;;;;;;;3.18;83.61;95444.71;1715418;82;21123;-61
2021/11/07 01:03:52;;;;;;;12.85;9.73;;;;;;;3.12;83.76;95432.09;1710611;83;21809;-62
2021/11/07 01:06:19;;;;;;;17.50;14.90;;;;;;;3.11;83.91;95434.62;1722247;82;21012;-61
2021/11/07 01:08:48;;;;;;;19.48;17.45;;;;;;;3.13;84.01;95432.86;1712657;83;21532;-61
2021/11/07 01:11:16;;;;;;;15.35;12.15;;;;;;;3.16;84.26;95422.58;1713145;83;21798;-60
2021/11/07 01:13:43;;;;;;;19.05;13.78;;;;;;;3.21;84.16;95418.15;1687655;84;21023;-61
2021/11/07 01:16:12;;;;;;;15.60;12.53;;;;;;;3.17;83.87;95406.46;1711139;82;21840;-61
2021/11/07 01:18:39;;;;;;;16.35;12.15;;;;;;;3.14;83.77;95406.66;1716268;83;20953;-61
2021/11/07 01:21:06;;;;;;;15.45;11.00;;;;;;;3.12;83.86;95402.77;1714464;82;21050;-61
2021/11/07 01:23:40;;;;;;;14.13;10.55;;;;;;;3.16;84.02;95394.03;1712549;83;20998;-61
2021/11/07 01:26:30;;;;;;;12.70;10.63;;;;;;;3.20;84.01;95399.69;1669105;84;21061;-61
2021/11/07 01:28:39;;;;;;;14.68;10.43;;;;;;;3.21;83.88;95389.60;1705902;83;22968;-61
2021/11/07 01:31:01;;;;;;;16.00;11.33;;;;;;;3.28;83.82;95381.45;1710153;83;21552;-61
2021/11/07 01:33:29;;;;;;;14.38;11.12;;;;;;;3.29;83.49;95380.28;1710701;82;21151;-60
2021/11/07 01:38:33;;;;;;;12.88;10.20;;;;;;;3.29;83.08;95387.08;1711194;83;22238;-62
2021/11/07 01:41:16;;;;;;;16.05;10.88;;;;;;;3.30;83.11;95383.20;1708276;83;21169;-61
2021/11/07 01:43:33;;;;;;;18.05;12.73;;;;;;;3.30;82.89;95379.12;1716092;83;21009;-60
2021/11/07 01:46:08;;;;;;;15.28;10.75;;;;;;;3.25;83.01;95387.66;1714270;83;20961;-61
2021/11/07 01:48:32;;;;;;;13.60;10.18;;;;;;;3.25;83.03;95380.87;1710401;83;21092;-62
2021/11/07 01:51:00;;;;;;;16.10;11.00;;;;;;;3.19;82.88;95371.51;1709346;82;21434;-62
2021/11/07 01:53:32;;;;;;;15.60;11.43;;;;;;;3.11;82.94;95372.10;1708871;83;21160;-61
2021/11/07 01:56:01;;;;;;;17.00;11.57;;;;;;;3.04;83.20;95371.30;1713239;83;20961;-62
2021/11/07 01:58:29;;;;;;;16.82;11.70;;;;;;;3.01;83.40;95360.60;1714985;83;21025;-61
2021/11/07 02:00:56;;;;;;;17.65;11.43;;;;;;;3.00;83.48;95352.25;1708764;82;22193;-62
2021/11/07 02:03:24;;;;;;;19.05;13.88;;;;;;;2.95;83.62;95349.13;1704415;83;21169;-61
2021/11/07 02:05:52;;;;;;;18.27;12.00;;;;;;;2.89;83.75;95346.00;1709924;83;21153;-61
2021/11/07 02:08:20;;;;;;;20.77;13.90;;;;;;;2.92;84.18;95336.31;1714935;83;20958;-62
2021/11/07 02:10:47;;;;;;;19.02;13.00;;;;;;;3.01;84.35;95338.07;1711127;83;21091;-61
2021/11/07 02:13:13;;;;;;;20.70;14.45;;;;;;;3.10;84.16;95318.11;1703769;82;21056;-61
2021/11/07 02:15:40;;;;;;;16.50;12.82;;;;;;;3.12;84.01;95313.06;1707259;83;21674;-62
2021/11/07 02:18:07;;;;;;;20.32;13.50;;;;;;;3.12;83.97;95308.98;1710480;83;21111;-60
2021/11/07 02:20:38;;;;;;;21.57;13.28;;;;;;;3.09;83.81;95307.05;1712262;82;21151;-62
2021/11/07 02:23:10;;;;;;;21.00;12.30;;;;;;;3.04;83.90;95303.36;1699008;83;21542;-61
2021/11/07 02:25:37;;;;;;;20.77;12.60;;;;;;;3.08;84.03;95295.98;1705362;83;21013;-60
2021/11/07 02:28:06;;;;;;;21.68;13.08;;;;;;;3.12;83.96;95292.68;1706040;83;21025;-61
2021/11/07 02:30:34;;;;;;;24.35;14.33;;;;;;;3.12;84.01;95302.98;1711246;82;21154;-60
2021/11/07 02:33:00;;;;;;;24.47;14.60;;;;;;;3.07;83.78;95291.11;1707295;83;21167;-59
2021/11/07 02:35:27;;;;;;;23.80;14.13;;;;;;;2.98;83.98;95296.72;1712686;83;21143;-61
2021/11/07 02:37:55;;;;;;;22.17;14.45;;;;;;;2.95;84.10;95299.65;1712215;82;21049;-61
2021/11/07 02:40:22;;;;;;;22.00;13.75;;;;;;;2.95;84.09;95297.50;1709444;83;21021;-61
2021/11/07 02:42:49;;;;;;;19.85;13.68;;;;;;;2.94;84.27;95299.45;1703802;82;21839;-63
2021/11/07 02:45:17;;;;;;;17.87;12.55;;;;;;;2.93;84.19;95303.91;1718832;83;21560;-61
2021/11/07 02:47:48;;;;;;;17.95;12.15;;;;;;;2.91;84.44;95300.80;1707555;83;20962;-62
2021/11/07 02:50:17;;;;;;;15.53;10.13;;;;;;;2.93;84.34;95296.54;1706903;83;21069;-61
2021/11/07 02:52:45;;;;;;;12.03;9.60;;;;;;;2.92;84.28;95295.55;1688605;83;21564;-62
2021/11/07 02:55:12;;;;;;;14.43;10.32;;;;;;;2.92;84.21;95284.13;1706572;83;21167;-61
2021/11/07 02:57:39;;;;;;;15.80;11.03;;;;;;;2.89;84.09;95277.31;1708050;83;21104;-61
2021/11/07 03:00:08;;;;;;;18.32;12.10;;;;;;;2.85;84.21;95290.11;1713775;82;21001;-60
2021/11/07 03:02:35;;;;;;;17.57;11.78;;;;;;;2.82;84.25;95278.63;1705615;83;21010;-60
2021/11/07 03:05:06;;;;;;;16.20;11.68;;;;;;;2.83;84.54;95284.30;1710857;83;20950;-60
2021/11/07 03:07:35;;;;;;;15.68;12.80;;;;;;;2.87;84.45;95281.76;1709871;83;21015;-61
2021/11/07 03:10:05;;;;;;;17.52;11.73;;;;;;;2.93;84.10;95276.73;1715964;82;20989;-61
2021/11/07 03:12:32;;;;;;;16.55;11.20;;;;;;;2.92;84.14;95277.89;1711334;83;21059;-61
2021/11/07 03:15:01;;;;;;;17.15;12.30;;;;;;;2.95;84.25;95275.20;1706784;83;21006;-61
2021/11/07 03:17:28;;;;;;;16.05;11.60;;;;;;;2.95;84.11;95267.05;1705957;83;21056;-60
2021/11/07 03:19:55;;;;;;;20.37;12.15;;;;;;;3.01;84.19;95270.13;1707518;83;21131;-61
2021/11/07 03:22:27;;;;;;;20.92;12.60;;;;;;;3.07;84.04;95259.09;1706636;82;21044;-61
2021/11/07 03:24:55;;;;;;;16.12;11.85;;;;;;;3.10;83.68;95242.01;1702272;82;21064;-61
2021/11/07 03:27:28;;;;;;;16.67;11.08;;;;;;;3.15;83.87;95240.26;1705810;83;21022;-61
2021/11/07 03:29:57;;;;;;;17.55;11.55;;;;;;;3.17;83.49;95240.64;1702144;83;21010;-60
2021/11/07 03:32:34;;;;;;;18.67;12.82;;;;;;;3.12;83.37;95245.91;1706666;83;21314;-60
2021/11/07 03:35:03;;;;;;;22.37;13.62;;;;;;;3.04;83.29;95242.20;1713901;83;21000;-60
2021/11/07 03:37:35;;;;;;;20.00;13.50;;;;;;;2.97;83.47;95237.54;1708675;83;21049;-61
2021/11/07 03:39:59;;;;;;;20.10;13.75;;;;;;;2.97;83.55;95238.90;1708484;83;21014;-62
2021/11/07 03:42:27;;;;;;;17.00;11.83;;;;;;;3.02;83.61;95231.71;1708253;84;20982;-61
2021/11/07 03:44:54;;;;;;;15.80;12.33;;;;;;;3.04;83.54;95233.45;1710996;83;21133;-62
2021/11/07 03:47:21;;;;;;;15.83;11.90;;;;;;;3.04;83.60;95235.41;1713507;83;20954;-61
2021/11/07 03:49:49;;;;;;;14.75;11.30;;;;;;;3.05;83.64;95238.33;1705462;83;20966;-61
2021/11/07 03:52:16;;;;;;;20.35;12.65;;;;;;;3.07;83.62;95235.40;1707388;84;21013;-62
2021/11/07 03:54:44;;;;;;;15.85;11.08;;;;;;;3.07;83.61;95233.28;1704471;83;21076;-61
2021/11/07 03:57:11;;;;;;;16.17;11.35;;;;;;;3.08;83.59;95234.83;1688160;84;21157;-61
2021/11/07 03:59:43;;;;;;;17.90;12.47;;;;;;;3.09;83.57;95227.63;1707340;84;21053;-62
2021/11/07 04:02:10;;;;;;;19.73;13.70;;;;;;;3.12;83.38;95222.80;1703449;83;20974;-61
2021/11/07 04:04:39;;;;;;;19.82;12.78;;;;;;;3.11;83.33;95214.45;1704307;83;21064;-61
2021/11/07 04:07:06;;;;;;;14.80;12.23;;;;;;;3.08;83.28;95215.80;1704443;83;21013;-61
2021/11/07 04:09:35;;;;;;;18.52;12.73;;;;;;;3.02;83.36;95214.05;1705365;83;20994;-61
2021/11/07 04:12:03;;;;;;;17.70;11.70;;;;;;;3.00;83.37;95207.44;1706112;83;20958;-60
2021/11/07 04:14:34;;;;;;;17.45;11.60;;;;;;;2.96;83.54;95199.30;1706598;83;21078;-61
2021/11/07 04:17:00;;;;;;;12.53;10.70;;;;;;;2.94;83.47;95197.55;1708016;83;21005;-61
2021/11/07 04:19:27;;;;;;;19.37;13.88;;;;;;;2.96;83.71;95202.02;1706097;83;21580;-62
2021/11/07 04:21:56;;;;;;;23.38;14.98;;;;;;;2.97;83.62;95209.01;1707490;83;21134;-61
2021/11/07 04:24:22;;;;;;;20.72;14.78;;;;;;;2.96;83.66;95207.45;1713642;83;20950;-61
2021/11/07 04:26:49;;;;;;;23.52;15.93;;;;;;;2.96;83.67;95210.17;1712759;83;21048;-61
2021/11/07 04:29:16;;;;;;;20.48;14.78;;;;;;;2.95;83.68;95198.32;1712815;83;20998;-62
2021/11/07 04:31:44;;;;;;;24.85;14.00;;;;;;;2.95;83.71;95192.31;1709523;83;21290;-60
2021/11/07 04:34:11;;;;;;;20.77;14.15;;;;;;;2.96;83.61;95188.44;1707523;83;21107;-63
2021/11/07 04:36:38;;;;;;;22.40;14.73;;;;;;;2.95;83.56;95192.88;1709511;84;21453;-60
2021/11/07 04:39:05;;;;;;;20.45;14.15;;;;;;;2.96;83.67;95179.49;1688303;84;21056;-61
2021/11/07 04:41:33;;;;;;;63.75;39.70;;;;;;;2.94;83.68;95170.95;1707438;83;21149;-62
2021/11/07 04:44:00;;;;;;;20.70;15.55;;;;;;;2.96;84.07;95174.05;1714230;83;20957;-61
2021/11/07 04:46:28;;;;;;;21.82;15.93;;;;;;;3.04;84.10;95175.63;1711461;83;21121;-60
2021/11/07 04:48:54;;;;;;;22.73;14.73;;;;;;;3.13;83.99;95178.72;1710262;84;21032;-61
2021/11/07 04:51:21;;;;;;;15.10;12.95;;;;;;;3.19;83.77;95167.64;1707900;83;21040;-62
2021/11/07 04:53:48;;;;;;;19.12;14.53;;;;;;;3.26;83.70;95162.21;1705688;84;21064;-62
2021/11/07 04:56:15;;;;;;;17.80;13.05;;;;;;;3.30;83.66;95165.70;1710181;83;21037;-61
2021/11/07 04:58:42;;;;;;;20.23;15.13;;;;;;;3.37;83.56;95162.95;1706336;83;22315;-60
2021/11/07 05:01:08;;;;;;;17.40;14.03;;;;;;;3.45;83.57;95153.03;1706476;83;20943;-62
2021/11/07 05:03:36;;;;;;;22.50;16.05;;;;;;;3.52;83.05;95162.56;1694775;83;21065;-61
2021/11/07 05:06:03;;;;;;;27.27;18.70;;;;;;;3.53;82.72;95173.03;1712895;83;21454;-62
2021/11/07 05:08:29;;;;;;;19.12;14.23;;;;;;;3.49;82.55;95166.83;1717337;82;21114;-64
2021/11/07 05:10:56;;;;;;;19.37;13.70;;;;;;;3.51;82.39;95161.01;1715003;83;21196;-61
2021/11/07 05:13:24;;;;;;;17.92;13.55;;;;;;;3.48;82.37;95166.45;1707392;83;21085;-62
2021/11/07 05:15:50;;;;;;;17.37;13.18;;;;;;;3.41;82.17;95157.71;1671958;84;21038;-61
2021/11/07 05:18:19;;;;;;;18.57;13.45;;;;;;;3.32;82.20;95160.07;1708540;83;21001;-62
2021/11/07 05:20:46;;;;;;;28.62;16.73;;;;;;;3.28;82.30;95159.88;1709433;82;21072;-62
2021/11/07 05:23:13;;;;;;;29.10;15.80;;;;;;;3.22;82.25;95148.61;1710131;83;21138;-62
2021/11/07 05:25:41;;;;;;;23.42;15.50;;;;;;;3.24;82.66;95129.97;1708031;83;21056;-62
2021/11/07 05:28:08;;;;;;;26.45;14.83;;;;;;;3.35;82.82;95127.23;1708930;83;21540;-62
2021/11/07 05:30:35;;;;;;;23.20;14.38;;;;;;;3.46;82.68;95109.72;1715895;83;21017;-62
2021/11/07 05:33:03;;;;;;;15.90;12.18;;;;;;;3.50;82.53;95094.95;1705175;83;20952;-62
2021/11/07 05:35:32;;;;;;;18.42;12.78;;;;;;;3.55;82.42;95104.05;1708099;83;21805;-62
2021/11/07 05:37:59;;;;;;;16.77;12.40;;;;;;;3.53;82.33;95092.80;1709381;83;21524;-63
2021/11/07 05:40:26;;;;;;;14.55;11.43;;;;;;;3.52;82.22;95091.25;1711721;83;21000;-61
2021/11/07 05:42:53;;;;;;;13.83;11.33;;;;;;;3.50;82.12;95089.51;1707996;83;20990;-61
2021/11/07 05:45:20;;;;;;;16.93;12.85;;;;;;;3.55;82.53;95082.30;1707728;83;20998;-62
2021/11/07 05:47:50;;;;;;;20.97;13.93;;;;;;;3.66;82.18;95096.64;1708052;83;21852;-61
2021/11/07 05:50:17;;;;;;;21.12;13.90;;;;;;;3.67;81.71;95085.95;1711773;83;21002;-62
2021/11/07 05:52:46;;;;;;;21.80;14.30;;;;;;;3.66;81.71;95090.45;1700494;83;21005;-62
2021/11/07 05:55:13;;;;;;;27.90;16.73;;;;;;;3.66;81.73;95096.64;1705753;83;21502;-63
2021/11/07 05:57:40;;;;;;;28.95;19.37;;;;;;;3.73;81.91;95085.72;1706592;83;20974;-62
2021/11/07 06:00:09;;;;;;;32.75;20.32;;;;;;;3.82;81.73;95073.05;1693409;83;21905;-62
2021/11/07 06:02:39;;;;;;;50.38;28.80;;;;;;;3.87;81.92;95076.14;1711428;83;20966;-61
2021/11/07 06:05:07;;;;;;;42.20;25.08;;;;;;;3.91;81.38;95078.26;1711401;83;21025;-62
2021/11/07 06:07:35;;;;;;;31.05;19.70;;;;;;;3.91;81.27;95089.14;1705873;83;21088;-62
2021/11/07 06:10:03;;;;;;;27.05;17.87;;;;;;;3.89;81.09;95093.45;1687353;83;20961;-63
2021/11/07 06:12:32;;;;;;;28.02;16.82;;;;;;;3.85;81.16;95094.06;1710925;83;21146;-63
2021/11/07 06:15:00;;;;;;;21.05;13.80;;;;;;;3.83;81.09;95101.84;1706890;83;20949;-66
2021/11/07 06:17:29;;;;;;;18.62;11.95;;;;;;;3.76;81.01;95098.56;1710990;83;21060;-62
2021/11/07 06:19:56;;;;;;;17.73;13.43;;;;;;;3.72;81.25;95107.30;1711884;82;21036;-61
2021/11/07 06:22:23;;;;;;;20.05;14.30;;;;;;;3.70;81.26;95106.92;1708446;82;21572;-62
2021/11/07 06:24:51;;;;;;;19.82;16.27;;;;;;;3.73;81.40;95096.61;1708356;83;21027;-63
2021/11/07 06:27:18;;;;;;;26.70;19.30;;;;;;;3.77;81.45;95088.44;1694532;83;21104;-62
2021/11/07 06:29:45;;;;;;;41.00;24.20;;;;;;;3.80;81.41;95092.52;1711873;83;20965;-62
2021/11/07 06:32:12;;;;;;;33.60;21.20;;;;;;;3.83;81.40;95095.80;1699771;83;21142;-63
2021/11/07 06:34:40;;;;;;;40.95;24.60;;;;;;;3.88;81.35;95083.14;1707243;83;21194;-63
2021/11/07 06:37:09;;;;;;;38.08;23.92;;;;;;;3.85;80.97;95068.97;1711698;83;21137;-64
2021/11/07 06:39:37;;;;;;;25.10;18.50;;;;;;;3.80;81.14;95063.16;1668532;84;21510;-62
2021/11/07 06:42:05;;;;;;;30.55;18.92;;;;;;;3.79;81.20;95057.53;1713061;83;21092;-64
2021/11/07 06:44:34;;;;;;;29.67;21.50;;;;;;;3.76;81.17;95050.95;1709608;83;21183;-62
2021/11/07 06:47:02;;;;;;;46.68;30.80;;;;;;;3.74;81.15;95046.50;1706353;83;21014;-63
2021/11/07 06:49:29;;;;;;;43.05;25.48;;;;;;;3.72;81.44;95044.73;1713056;83;21102;-63
2021/11/07 06:51:56;;;;;;;39.67;24.18;;;;;;;3.74;81.65;95030.17;1714528;83;21088;-64
2021/11/07 06:54:25;;;;;;;42.45;26.27;;;;;;;3.80;81.60;95017.69;1720478;83;20961;-62
2021/11/07 06:56:51;;;;;;;37.45;25.12;;;;;;;3.81;81.50;95028.77;1716816;82;21029;-63
2021/11/07 06:59:18;;;;;;;41.83;24.63;;;;;;;3.84;81.52;95034.77;1718938;83;21137;-63
2021/11/07 07:01:45;;;;;;;36.40;26.40;;;;;;;3.83;81.65;95035.94;1716141;82;21122;-62
2021/11/07 07:04:12;;;;;;;39.00;24.20;;;;;;;3.88;81.63;95024.63;1711761;83;20982;-63
2021/11/07 07:06:40;;;;;;;41.37;26.15;;;;;;;3.91;81.54;95017.03;1719467;83;21488;-63
2021/11/07 07:09:14;;;;;;;36.48;25.50;;;;;;;4.00;81.67;95013.30;1718253;83;21016;-63
2021/11/07 07:12:28;;;;;;;40.95;28.10;;;;;;;4.12;81.64;95007.39;1704852;83;21001;-63
2021/11/07 07:14:09;;;;;;;44.13;27.80;;;;;;;4.17;81.50;94998.80;1687836;83;22086;-63
2021/11/07 07:16:52;;;;;;;45.73;29.23;;;;;;;4.24;81.69;95006.89;1708965;83;21093;-63
2021/11/07 07:19:36;;;;;;;47.45;29.70;;;;;;;4.28;81.57;94998.11;1706378;83;21058;-62
2021/11/07 07:29:56;;;;;;;52.83;32.93;;;;;;;4.43;80.67;95004.23;1707005;83;21069;-64
2021/11/07 07:32:27;;;;;;;45.75;28.92;;;;;;;4.47;80.62;95010.43;1706407;83;21092;-63
2021/11/07 07:34:53;;;;;;;43.42;27.27;;;;;;;4.48;80.48;94999.14;1705623;82;21052;-63
2021/11/07 07:37:19;;;;;;;59.23;29.98;;;;;;;4.46;80.31;94990.57;1685912;84;21037;-64
2021/11/07 07:39:46;;;;;;;47.70;29.52;;;;;;;4.40;80.35;94995.52;1708986;83;21188;-62
2021/11/07 07:42:12;;;;;;;75.52;37.80;;;;;;;4.37;80.50;94988.91;1709740;83;20997;-62
2021/11/07 07:44:40;;;;;;;54.15;28.38;;;;;;;4.39;80.37;94982.47;1708109;83;21121;-63
2021/11/07 07:47:07;;;;;;;44.60;27.32;;;;;;;4.37;80.12;94974.51;1700860;83;21183;-63
2021/11/07 07:49:34;;;;;;;65.25;36.03;;;;;;;4.43;80.46;94982.45;1705895;83;21073;-62
2021/11/07 07:52:00;;;;;;;73.83;44.00;;;;;;;4.55;80.40;94973.77;1711613;83;21151;-62
2021/11/07 07:54:27;;;;;;;198.65;90.50;;;;;;;4.61;79.92;94964.76;1709629;83;21228;-63
2021/11/07 07:56:53;;;;;;;197.02;93.62;;;;;;;4.64;79.92;94971.36;1711051;82;21103;-63
2021/11/07 07:59:20;;;;;;;100.35;47.80;;;;;;;4.69;79.82;94969.55;1701626;83;21033;-64
2021/11/07 08:01:47;;;;;;;66.47;35.25;;;;;;;4.76;79.68;94969.51;1710422;83;21037;-64
2021/11/07 08:04:14;;;;;;;47.00;29.12;;;;;;;4.78;79.25;94959.73;1709022;83;21140;-63
2021/11/07 08:06:41;;;;;;;52.43;31.95;;;;;;;4.80;79.21;94956.61;1677977;83;21013;-62
2021/11/07 08:09:08;;;;;;;42.73;26.20;;;;;;;4.81;79.21;94961.64;1710075;83;21525;-63
2021/11/07 08:11:39;;;;;;;45.55;26.82;;;;;;;4.85;79.31;94951.50;1707368;83;21061;-62
2021/11/07 08:14:06;;;;;;;50.45;30.48;;;;;;;4.83;78.88;94945.66;1710139;83;21227;-63
2021/11/07 08:16:35;;;;;;;50.65;31.93;;;;;;;4.78;79.06;94927.03;1708183;83;21196;-62
2021/11/07 08:19:02;;;;;;;54.80;30.70;;;;;;;4.86;79.42;94918.97;1706868;83;20935;-64
2021/11/07 08:21:36;;;;;;;51.60;32.03;;;;;;;5.00;79.24;94914.70;1707112;82;21036;-62
2021/11/07 08:24:00;;;;;;;37.65;26.87;;;;;;;5.10;78.91;94923.36;1709814;83;20965;-63
2021/11/07 08:26:27;;;;;;;43.68;27.52;;;;;;;5.21;78.53;94909.02;1712522;82;20998;-62
2021/11/07 08:28:54;;;;;;;34.05;21.95;;;;;;;5.34;78.34;94904.55;1711144;83;21049;-63
2021/11/07 08:31:26;;;;;;;36.88;21.90;;;;;;;5.49;78.25;94916.82;1706890;83;21033;-63
2021/11/07 08:33:52;;;;;;;35.75;23.12;;;;;;;5.63;77.46;94913.91;1709157;83;21429;-63
2021/11/07 08:36:25;;;;;;;39.08;25.15;;;;;;;5.68;77.11;94892.39;1707391;83;20965;-64
2021/11/07 08:39:00;;;;;;;31.68;23.12;;;;;;;5.78;77.29;94898.88;1713143;83;20985;-62
2021/11/07 08:41:23;;;;;;;27.70;18.55;;;;;;;5.96;77.25;94889.25;1705236;83;21135;-61
2021/11/07 09:00:19;;;;;;;38.02;24.67;;;;;;;6.90;75.22;94881.95;1708819;83;21092;-63
2021/11/07 09:08:19;;;;;;;28.80;20.65;;;;;;;7.12;73.85;94877.78;1707618;83;21177;-63
2021/11/07 09:10:47;;;;;;;34.40;22.58;;;;;;;7.17;73.81;94871.80;1714363;83;21049;-63
2021/11/07 09:13:16;;;;;;;27.80;20.62;;;;;;;7.27;73.78;94880.98;1701748;83;21090;-63
2021/11/07 09:15:45;;;;;;;30.02;19.82;;;;;;;7.45;73.77;94871.81;1712742;83;20989;-63
2021/11/07 09:18:12;;;;;;;24.37;18.57;;;;;;;7.67;73.64;94859.98;1711320;83;20961;-62
2021/11/07 09:23:29;;;;;;;21.65;15.58;;;;;;;8.11;72.33;94842.88;1707039;83;21204;-63
2021/11/07 09:26:40;;;;;;;27.50;16.48;;;;;;;8.38;71.80;94845.38;1707875;83;20958;-62
2021/11/07 09:28:29;;;;;;;25.90;16.42;;;;;;;8.72;71.34;94823.13;1699357;82;21002;-63
2021/11/07 09:31:06;;;;;;;28.50;18.50;;;;;;;8.96;70.65;94803.24;1691646;83;21100;-62
2021/11/07 09:34:09;;;;;;;37.03;24.50;;;;;;;9.16;69.20;94808.55;1719924;83;21141;-65
2021/11/07 09:38:47;;;;;;;27.85;18.60;;;;;;;9.36;67.42;94803.63;1710585;83;21092;-62
2021/11/07 09:43:51;;;;;;;;;;;;;;;9.63;65.40;94795.14;1714652;83;20965;-65
2021/11/07 09:48:55;;;;;;;36.13;23.62;;;;;;;9.66;65.52;94779.14;1706174;83;20962;-64
2021/11/07 09:51:21;;;;;;;44.30;24.85;;;;;;;9.64;65.65;94784.94;1709191;83;20971;-63
2021/11/07 09:53:52;;;;;;;38.02;23.70;;;;;;;9.66;65.69;94780.52;1708249;83;21017;-63
2021/11/07 09:56:20;;;;;;;31.65;20.85;;;;;;;9.76;65.21;94781.42;1710908;83;21089;-63
2021/11/07 09:58:50;;;;;;;32.50;22.42;;;;;;;9.83;65.45;94766.08;1720906;82;21241;-63
2021/11/07 10:01:16;;;;;;;30.90;19.65;;;;;;;9.94;65.14;94781.01;1712481;82;21219;-64
2021/11/07 10:03:44;;;;;;;33.15;20.45;;;;;;;10.21;64.71;94772.30;1714515;82;21081;-64
2021/11/07 10:06:32;;;;;;;36.20;20.70;;;;;;;10.48;64.04;94760.16;1713426;82;21014;-64
2021/11/07 10:09:01;;;;;;;24.00;16.17;;;;;;;10.60;63.12;94771.73;1711676;82;20975;-63
2021/11/07 10:11:37;;;;;;;28.30;18.75;;;;;;;10.47;63.04;94770.41;1722145;82;21147;-63
2021/11/07 10:14:10;;;;;;;25.15;19.40;;;;;;;10.27;63.52;94760.30;1713831;81;28283;-64
2021/11/07 10:16:45;;;;;;;38.45;24.40;;;;;;;10.13;64.14;94750.40;1714106;82;21026;-62
2021/11/07 10:19:18;;;;;;;33.40;24.40;;;;;;;10.01;64.82;94738.20;1696033;83;20994;-63
2021/11/07 10:21:48;;;;;;;41.35;26.15;;;;;;;10.00;65.48;94731.75;1713973;82;20963;-63
2021/11/07 10:24:19;;;;;;;;;;;;;;;10.04;66.09;94710.44;1670426;83;21175;-64
2021/11/07 10:26:54;;;;;;;42.67;26.45;;;;;;;10.25;66.57;94717.36;1714595;81;20434;-63
2021/11/07 10:29:39;;;;;;;33.53;22.35;;;;;;;10.65;66.36;94705.13;1708536;82;21031;-62
2021/11/07 10:32:15;;;;;;;29.37;19.32;;;;;;;11.00;65.58;94692.97;1715761;82;21029;-63
2021/11/07 10:42:58;;;;;;;;;;;;;;;;;;;;;
2021/11/07 10:53:28;;;;;;;30.70;20.25;;;;;;;10.52;64.81;94654.94;1707808;82;21527;-64
2021/11/07 10:56:03;;;;;;;32.88;21.77;;;;;;;10.42;65.26;94638.20;1704588;82;21066;-63
2021/11/07 10:58:38;;;;;;;35.68;22.58;;;;;;;10.42;65.82;94652.73;1712287;83;21082;-63
2021/11/07 11:01:08;;;;;;;30.77;22.00;;;;;;;10.43;65.87;94635.61;1709880;83;21053;-63
2021/11/07 11:03:44;;;;;;;31.75;21.05;;;;;;;10.51;66.32;94613.52;1677029;83;21939;-62
2021/11/07 11:06:14;;;;;;;42.25;27.13;;;;;;;10.82;66.67;94614.44;1717106;82;21224;-63
2021/11/07 11:11:31;;;;;;;31.85;19.65;;;;;;;11.47;64.42;94603.97;1711766;83;21061;-63
2021/11/07 11:14:11;;;;;;;30.37;21.10;;;;;;;11.59;64.21;94600.36;1707289;82;21057;-64
2021/11/07 11:28:01;;;;;;;57.33;32.05;;;;;;;11.28;64.49;94583.71;1713775;81;21030;-61
2021/11/07 11:30:47;;;;;;;59.80;38.02;;;;;;;11.13;65.35;94575.27;1710609;81;21156;-62
2021/11/07 11:33:28;;;;;;;44.85;29.02;;;;;;;11.14;66.54;94564.41;1711091;83;21049;-62
2021/11/07 11:38:23;;;;;;;26.75;19.02;;;;;;;11.11;65.81;94588.72;1713052;82;21023;-64
2021/11/07 11:43:30;;;;;;;24.50;14.83;;;;;;;11.13;66.55;94581.41;1690458;83;21842;-63
2021/11/07 11:46:01;;;;;;;23.75;15.13;;;;;;;11.31;66.11;94580.08;1713590;82;21034;-63
2021/11/07 11:51:53;;;;;;;35.78;23.90;;;;;;;11.45;65.56;94592.64;1717467;82;21055;-64
2021/11/07 11:57:32;;;;;;;33.50;19.23;;;;;;;11.52;65.93;94574.44;1718660;82;21903;-63
2021/11/07 12:00:44;;;;;;;34.25;19.75;;;;;;;11.43;66.06;94585.45;1714587;82;21165;-64
2021/11/07 12:02:39;;;;;;;32.20;21.05;;;;;;;11.38;66.71;94586.66;1689272;82;20982;-63
2021/11/07 12:05:23;;;;;;;;;;;;;;;;;;;;;
2021/11/07 12:11:09;;;;;;;20.17;13.90;;;;;;;11.12;68.42;94594.38;1711373;83;21146;-64
2021/11/07 12:13:42;;;;;;;23.75;14.70;;;;;;;11.06;68.90;94593.45;1722446;82;21041;-63
2021/11/07 12:16:27;;;;;;;23.05;15.43;;;;;;;11.00;69.18;94592.50;1696226;83;21082;-63
2021/11/07 12:19:06;;;;;;;29.72;17.60;;;;;;;10.93;69.55;94587.28;1703889;83;21058;-69
2021/11/07 12:22:00;;;;;;;30.62;18.62;;;;;;;10.85;69.87;94579.16;1689697;83;21601;-64
2021/11/07 12:24:32;;;;;;;26.05;18.73;;;;;;;10.77;70.28;94571.00;1726076;82;21141;-63
2021/11/07 12:27:25;;;;;;;24.40;15.93;;;;;;;10.79;70.54;94569.94;1692353;83;20978;-65
2021/11/07 12:30:05;;;;;;;23.80;15.03;;;;;;;10.84;70.85;94573.47;1684746;83;21076;-64
2021/11/07 12:32:37;;;;;;;32.13;17.20;;;;;;;10.86;70.97;94566.15;1701295;82;21573;-64
2021/11/07 12:35:20;;;;;;;33.85;17.42;;;;;;;10.87;71.07;94555.30;1714788;82;21564;-64
2021/11/07 12:40:53;;;;;;;30.35;21.62;;;;;;;10.86;71.29;94561.42;1718173;82;21157;-64
2021/11/07 12:43:33;;;;;;;32.05;18.32;;;;;;;10.87;71.50;94557.45;1707415;83;20998;-63
2021/11/07 12:46:17;;;;;;;27.35;17.20;;;;;;;10.88;71.44;94544.44;1713079;82;21014;-64
2021/11/07 12:48:50;;;;;;;51.68;28.40;;;;;;;10.87;71.77;94531.31;1711449;82;21057;-63
2021/11/07 12:51:21;;;;;;;32.00;21.17;;;;;;;10.87;71.91;94535.44;1714878;83;21138;-63
2021/11/07 12:54:07;;;;;;;51.20;20.52;;;;;;;10.91;72.04;94522.30;1688335;83;21659;-64
2021/11/07 12:56:44;;;;;;;28.57;17.60;;;;;;;10.94;72.03;94522.76;1717968;82;21436;-63
2021/11/07 12:59:28;;;;;;;37.83;20.77;;;;;;;10.96;72.02;94509.92;1711491;82;21565;-63
2021/11/07 13:02:15;;;;;;;34.40;20.85;;;;;;;10.95;72.27;94504.27;1713722;81;21069;-64
2021/11/07 13:05:40;;;;;;;30.88;19.73;;;;;;;10.92;72.52;94506.53;1725582;82;21154;-64
2021/11/07 13:07:44;;;;;;;25.68;17.90;;;;;;;10.90;72.70;94497.37;1675101;83;21434;-63
2021/11/07 13:10:16;;;;;;;27.70;18.27;;;;;;;10.90;72.86;94490.49;1697805;82;21038;-64
2021/11/07 13:12:47;;;;;;;27.42;19.17;;;;;;;10.91;73.12;94503.03;1710898;83;21664;-62
2021/11/07 13:15:46;;;;;;;;;;;;;;;;;;;;;
2021/11/07 13:26:03;;;;;;;36.68;22.65;;;;;;;11.04;73.10;94491.89;1678879;83;21117;-63
2021/11/07 13:31:14;;;;;;;42.90;27.77;;;;;;;10.97;73.17;94494.31;1717527;82;21829;-62
2021/11/07 13:33:38;;;;;;;47.70;28.65;;;;;;;10.95;73.38;94501.52;1729376;82;21092;-64
2021/11/07 13:36:05;;;;;;;59.85;35.05;;;;;;;10.90;73.55;94497.37;1691022;82;21113;-62
2021/11/07 13:38:46;;;;;;;75.10;41.33;;;;;;;10.91;73.78;94492.02;1714321;82;21572;-63
2021/11/07 13:41:22;;;;;;;84.90;43.87;;;;;;;10.94;74.00;94491.70;1690163;83;20974;-63
2021/11/07 13:44:01;;;;;;;74.15;46.10;;;;;;;10.99;74.17;94491.13;1674649;85;21060;-63
2021/11/07 13:46:28;;;;;;;49.98;29.57;;;;;;;11.05;74.24;94492.82;1643542;85;21050;-63
2021/11/07 13:49:03;;;;;;;35.30;21.02;;;;;;;11.10;73.95;94483.17;1692316;83;21105;-62